createdAt,value
2018-09-10T00:00:19.939Z,83.30
2018-09-10T00:02:48.779Z,82.80
2018-09-10T00:05:17.628Z,83.20
2018-09-10T00:07:46.540Z,83.00
2018-09-10T00:10:15.380Z,82.90
2018-09-10T00:12:44.359Z,83.50
2018-09-10T00:15:13.520Z,83.90
2018-09-10T00:17:42.427Z,83.90
2018-09-10T00:20:11.273Z,83.90
2018-09-10T00:22:40.144Z,84.10
2018-09-10T00:25:09.441Z,83.70
2018-09-10T00:27:38.368Z,84.10
2018-09-10T00:30:07.384Z,84.10
2018-09-10T00:32:36.243Z,83.30
2018-09-10T00:35:05.135Z,83.10
2018-09-10T00:37:34.016Z,82.90
2018-09-10T00:40:02.836Z,83.10
2018-09-10T00:42:31.655Z,83.70
2018-09-10T00:45:00.556Z,84.40
2018-09-10T00:47:29.407Z,83.90
2018-09-10T00:49:58.247Z,84.70
2018-09-10T00:52:27.167Z,85.10
2018-09-10T00:54:56.087Z,83.10
2018-09-10T00:57:24.937Z,83.50
2018-09-10T00:59:53.860Z,83.20
2018-09-10T01:02:22.752Z,83.20
2018-09-10T01:04:51.596Z,83.40
2018-09-10T01:07:20.480Z,84.20
2018-09-10T01:09:49.345Z,84.60
2018-09-10T01:12:18.207Z,84.70
2018-09-10T01:14:47.161Z,84.70
2018-09-10T01:17:16.033Z,85.00
2018-09-10T01:19:44.888Z,85.80
2018-09-10T01:22:13.792Z,84.50
2018-09-10T01:24:42.647Z,84.30
2018-09-10T01:27:11.535Z,84.60
2018-09-10T01:29:40.400Z,85.80
2018-09-10T01:32:09.233Z,85.40
2018-09-10T01:34:43.363Z,84.90
2018-09-10T01:37:12.249Z,84.70
2018-09-10T01:39:41.118Z,85.00
2018-09-10T01:42:10.017Z,85.40
2018-09-10T01:44:38.850Z,85.20
2018-09-10T01:47:08.361Z,84.50
2018-09-10T01:49:37.312Z,84.60
2018-09-10T01:52:06.185Z,84.60
2018-09-10T01:54:35.060Z,84.20
2018-09-10T01:57:03.960Z,84.70
2018-09-10T01:59:32.795Z,84.30
2018-09-10T02:02:01.653Z,84.20
2018-09-10T02:04:30.543Z,84.80
2018-09-10T02:06:59.380Z,85.00
2018-09-10T02:09:28.227Z,85.00
2018-09-10T02:11:57.214Z,85.30
2018-09-10T02:14:26.063Z,85.00
2018-09-10T02:16:54.942Z,83.30
2018-09-10T02:19:23.827Z,83.10
2018-09-10T02:21:52.651Z,84.00
2018-09-10T02:24:21.493Z,83.20
2018-09-10T02:26:50.444Z,83.00
2018-09-10T02:29:19.400Z,82.30
2018-09-10T02:31:48.209Z,82.10
2018-09-10T02:34:17.148Z,82.00
2018-09-10T02:36:46.022Z,81.60
2018-09-10T02:39:14.854Z,82.80
2018-09-10T02:41:44.792Z,83.30
2018-09-10T02:44:14.573Z,82.50
2018-09-10T02:46:43.488Z,83.40
2018-09-10T02:49:12.433Z,82.10
2018-09-10T02:51:41.265Z,82.70
2018-09-10T02:54:10.110Z,84.30
2018-09-10T02:56:38.983Z,84.00
2018-09-10T02:59:07.825Z,82.60
2018-09-10T03:01:36.675Z,83.60
2018-09-10T03:04:05.607Z,83.80
2018-09-10T03:06:34.457Z,83.70
2018-09-10T03:09:03.589Z,83.70
2018-09-10T03:11:32.465Z,83.00
2018-09-10T03:14:01.356Z,84.10
2018-09-10T03:16:30.172Z,84.40
2018-09-10T03:18:59.040Z,83.70
2018-09-10T03:21:27.879Z,83.00
2018-09-10T03:23:56.792Z,83.20
2018-09-10T03:26:25.720Z,83.00
2018-09-10T03:28:54.597Z,84.70
2018-09-10T03:31:23.477Z,84.70
2018-09-10T03:33:52.363Z,84.00
2018-09-10T03:36:21.224Z,84.10
2018-09-10T03:38:50.050Z,84.60
2018-09-10T03:41:18.953Z,84.40
2018-09-10T03:43:47.770Z,85.30
2018-09-10T03:46:16.611Z,86.20
2018-09-10T03:48:45.493Z,86.20
2018-09-10T03:51:14.332Z,84.50
2018-09-10T03:53:43.171Z,84.70
2018-09-10T03:56:12.081Z,85.00
2018-09-10T03:58:40.922Z,83.90
2018-09-10T04:01:09.750Z,83.70
2018-09-10T04:03:38.645Z,82.70
2018-09-10T04:06:07.504Z,83.40
2018-09-10T04:08:36.363Z,82.40
2018-09-10T04:11:05.289Z,84.10
2018-09-10T04:13:34.135Z,82.90
2018-09-10T04:16:02.983Z,81.50
2018-09-10T04:18:31.947Z,81.80
2018-09-10T04:21:00.853Z,82.00
2018-09-10T04:23:29.724Z,84.00
2018-09-10T04:25:58.677Z,83.50
2018-09-10T04:28:27.547Z,83.10
2018-09-10T04:30:56.407Z,82.00
2018-09-10T04:33:25.457Z,82.00
2018-09-10T04:35:54.358Z,81.30
2018-09-10T04:38:23.341Z,81.30
2018-09-10T04:40:53.340Z,81.50
2018-09-10T04:43:22.312Z,82.80
2018-09-10T04:45:51.421Z,84.90
2018-09-10T04:48:20.820Z,84.30
2018-09-10T04:50:49.746Z,84.50
2018-09-10T04:53:18.840Z,84.90
2018-09-10T04:55:47.683Z,85.00
2018-09-10T04:58:16.608Z,85.60
2018-09-10T05:00:45.576Z,85.50
2018-09-10T05:03:14.805Z,86.00
2018-09-10T05:05:43.744Z,86.40
2018-09-10T05:08:13.227Z,85.90
2018-09-10T05:10:42.116Z,85.60
2018-09-10T05:13:10.960Z,85.20
2018-09-10T05:15:41.212Z,85.10
2018-09-10T05:18:10.114Z,85.00
2018-09-10T05:20:39.237Z,84.70
2018-09-10T05:23:08.199Z,84.60
2018-09-10T05:25:37.097Z,83.70
2018-09-10T05:28:05.966Z,84.30
2018-09-10T05:30:34.926Z,83.50
2018-09-10T05:33:03.920Z,82.00
2018-09-10T05:35:32.872Z,84.50
2018-09-10T05:38:01.753Z,83.90
2018-09-10T05:40:30.754Z,82.20
2018-09-10T05:42:59.592Z,81.60
2018-09-10T05:45:34.452Z,80.60
2018-09-10T05:48:03.315Z,78.70
2018-09-10T05:50:32.156Z,77.20
2018-09-10T05:53:01.106Z,76.90
2018-09-10T05:55:30.051Z,77.70
2018-09-10T05:57:58.938Z,77.90
2018-09-10T06:00:27.815Z,77.20
2018-09-10T06:02:57.208Z,76.40
2018-09-10T06:05:26.043Z,75.70
2018-09-10T06:07:55.025Z,74.90
2018-09-10T06:10:24.046Z,74.20
2018-09-10T06:12:52.984Z,73.90
2018-09-10T06:15:21.881Z,73.00
2018-09-10T06:17:50.843Z,72.40
2018-09-10T06:20:19.741Z,72.60
2018-09-10T06:22:48.671Z,72.40
2018-09-10T06:25:17.526Z,71.90
2018-09-10T06:27:46.373Z,71.00
2018-09-10T06:30:15.427Z,70.50
2018-09-10T06:32:44.476Z,70.10
2018-09-10T06:35:13.479Z,69.60
2018-09-10T06:37:42.336Z,68.40
2018-09-10T06:40:11.173Z,67.20
2018-09-10T06:42:40.209Z,66.60
2018-09-10T06:45:09.054Z,65.60
2018-09-10T06:47:37.982Z,65.40
2018-09-10T06:50:06.859Z,65.80
2018-09-10T06:52:35.721Z,65.60
2018-09-10T06:55:04.664Z,65.70
2018-09-10T06:57:33.579Z,65.90
2018-09-10T07:00:02.425Z,65.00
2018-09-10T07:02:31.311Z,64.30
2018-09-10T07:05:00.229Z,64.00
2018-09-10T07:07:29.047Z,63.60
2018-09-10T07:09:58.068Z,62.60
2018-09-10T07:12:26.927Z,61.80
2018-09-10T07:14:55.739Z,61.50
2018-09-10T07:17:24.643Z,61.50
2018-09-10T07:19:53.513Z,60.60
2018-09-10T07:22:22.341Z,60.40
2018-09-10T07:24:51.259Z,59.70
2018-09-10T07:27:20.118Z,58.80
2018-09-10T07:29:48.968Z,58.50
2018-09-10T07:32:18.001Z,58.60
2018-09-10T07:34:46.889Z,59.10
2018-09-10T07:37:15.732Z,58.30
2018-09-10T07:39:44.701Z,57.90
2018-09-10T07:42:13.565Z,58.10
2018-09-10T07:44:42.481Z,58.30
2018-09-10T07:47:11.489Z,57.80
2018-09-10T07:49:40.359Z,57.10
2018-09-10T07:52:09.185Z,56.50
2018-09-10T07:54:38.254Z,56.90
2018-09-10T07:57:07.075Z,56.90
2018-09-10T07:59:36.047Z,56.30
2018-09-10T08:02:04.919Z,57.00
2018-09-10T08:04:33.841Z,56.60
2018-09-10T08:07:02.749Z,56.40
2018-09-10T08:09:31.651Z,57.00
2018-09-10T08:12:00.511Z,56.90
2018-09-10T08:14:29.397Z,57.00
2018-09-10T08:16:58.392Z,55.60
2018-09-10T08:19:27.293Z,56.10
2018-09-10T08:21:56.175Z,55.70
2018-09-10T08:24:25.104Z,55.10
2018-09-10T08:26:53.921Z,55.00
2018-09-10T08:29:22.859Z,54.90
2018-09-10T08:31:51.827Z,54.80
2018-09-10T08:34:20.696Z,55.10
2018-09-10T08:36:49.820Z,54.50
2018-09-10T08:39:18.781Z,54.40
2018-09-10T08:41:47.712Z,54.70
2018-09-10T08:44:16.623Z,54.50
2018-09-10T08:46:45.641Z,54.70
2018-09-10T08:49:14.561Z,55.00
2018-09-10T08:51:43.463Z,54.70
2018-09-10T08:54:12.524Z,54.40
2018-09-10T08:56:41.380Z,54.80
2018-09-10T08:59:10.316Z,54.70
2018-09-10T09:01:39.243Z,54.70
2018-09-10T09:04:08.113Z,54.60
2018-09-10T09:06:36.947Z,54.50
2018-09-10T09:09:07.581Z,54.90
2018-09-10T09:11:36.468Z,55.90
2018-09-10T09:14:05.309Z,54.80
2018-09-10T09:16:34.192Z,55.00
2018-09-10T09:19:03.024Z,54.90
2018-09-10T09:21:31.854Z,55.20
2018-09-10T09:24:00.816Z,55.00
2018-09-10T09:26:29.823Z,54.50
2018-09-10T09:28:58.716Z,54.40
2018-09-10T09:31:27.725Z,54.20
2018-09-10T09:33:56.570Z,54.50
2018-09-10T09:36:30.573Z,54.50
2018-09-10T09:39:04.622Z,54.70
2018-09-10T09:41:38.639Z,54.90
2018-09-10T09:44:12.667Z,55.70
2018-09-10T09:46:41.606Z,55.30
2018-09-10T09:49:10.437Z,55.10
2018-09-10T09:51:39.261Z,54.00
2018-09-10T09:54:08.162Z,54.80
2018-09-10T09:56:37.039Z,54.20
2018-09-10T09:59:05.951Z,54.90
2018-09-10T10:01:40.794Z,54.10
2018-09-10T10:04:11.112Z,54.80
2018-09-10T10:06:39.907Z,53.80
2018-09-10T10:09:11.439Z,54.10
2018-09-10T10:11:40.842Z,53.50
2018-09-10T10:14:10.411Z,53.60
2018-09-10T10:16:39.423Z,54.10
2018-09-10T10:19:08.262Z,53.30
2018-09-10T10:21:37.251Z,53.00
2018-09-10T10:24:06.126Z,53.00
2018-09-10T10:26:35.103Z,52.40
2018-09-10T10:29:04.000Z,52.80
2018-09-10T10:31:33.234Z,52.90
2018-09-10T10:34:02.153Z,52.80
2018-09-10T10:36:31.093Z,53.10
2018-09-10T10:39:00.120Z,53.80
2018-09-10T10:41:29.114Z,52.70
2018-09-10T10:43:58.785Z,52.20
2018-09-10T10:46:27.620Z,51.80
2018-09-10T10:48:56.567Z,51.60
2018-09-10T10:51:25.505Z,50.80
2018-09-10T10:53:54.434Z,49.30
2018-09-10T10:56:23.196Z,49.10
2018-09-10T10:58:52.073Z,49.30
2018-09-10T11:01:20.936Z,50.50
2018-09-10T11:03:49.752Z,50.60
2018-09-10T11:06:18.696Z,50.00
2018-09-10T11:08:47.601Z,49.60
2018-09-10T11:11:16.442Z,50.60
2018-09-10T11:13:45.295Z,50.80
2018-09-10T11:16:14.134Z,50.10
2018-09-10T11:18:42.950Z,50.30
2018-09-10T11:21:11.833Z,50.40
2018-09-10T11:23:40.656Z,50.50
2018-09-10T11:26:09.493Z,50.20
2018-09-10T11:28:38.356Z,50.00
2018-09-10T11:31:07.218Z,49.90
2018-09-10T11:33:36.066Z,50.40
2018-09-10T11:36:04.976Z,50.30
2018-09-10T11:38:33.820Z,50.30
2018-09-10T11:41:02.657Z,50.10
2018-09-10T11:43:31.626Z,50.20
2018-09-10T11:46:00.494Z,49.80
2018-09-10T11:48:29.429Z,49.60
2018-09-10T11:50:58.416Z,49.30
2018-09-10T11:53:27.261Z,49.50
2018-09-10T11:55:56.104Z,49.70
2018-09-10T11:58:24.993Z,49.80
2018-09-10T12:00:53.969Z,49.30
2018-09-10T12:03:22.934Z,48.90
2018-09-10T12:05:51.861Z,48.80
2018-09-10T12:08:20.924Z,48.40
2018-09-10T12:10:49.848Z,48.30
2018-09-10T12:13:18.668Z,49.00
2018-09-10T12:15:47.511Z,49.20
2018-09-10T12:18:16.411Z,48.30
2018-09-10T12:20:45.223Z,47.80
2018-09-10T12:23:14.076Z,48.50
2018-09-10T12:25:43.001Z,49.00
2018-09-10T12:28:11.844Z,48.00
2018-09-10T12:30:40.668Z,48.00
2018-09-10T12:33:09.620Z,47.70
2018-09-10T12:35:38.459Z,48.20
2018-09-10T12:38:07.353Z,47.80
2018-09-10T12:40:36.292Z,48.10
2018-09-10T12:43:05.149Z,48.20
2018-09-10T12:45:34.168Z,47.80
2018-09-10T12:48:03.092Z,47.60
2018-09-10T12:50:32.006Z,48.10
2018-09-10T12:53:00.840Z,48.20
2018-09-10T12:55:30.690Z,47.70
2018-09-10T12:57:59.625Z,48.90
2018-09-10T13:00:28.468Z,48.20
2018-09-10T13:02:57.461Z,48.80
2018-09-10T13:05:26.458Z,49.30
2018-09-10T13:07:55.379Z,48.60
2018-09-10T13:10:24.353Z,49.10
2018-09-10T13:12:53.428Z,49.60
2018-09-10T13:15:22.258Z,49.80
2018-09-10T13:17:51.119Z,50.30
2018-09-10T13:20:20.033Z,50.30
2018-09-10T13:22:48.860Z,50.00
2018-09-10T13:25:17.800Z,50.10
2018-09-10T13:27:46.614Z,50.30
2018-09-10T13:30:15.457Z,50.40
2018-09-10T13:32:44.369Z,50.00
2018-09-10T13:35:13.372Z,50.10
2018-09-10T13:37:42.204Z,50.70
2018-09-10T13:40:11.104Z,50.80
2018-09-10T13:42:39.988Z,50.50
2018-09-10T13:45:08.853Z,50.70
2018-09-10T13:47:37.700Z,51.50
2018-09-10T13:50:06.617Z,51.20
2018-09-10T13:52:35.642Z,51.70
2018-09-10T13:55:04.500Z,50.90
2018-09-10T13:57:33.470Z,50.90
2018-09-10T14:00:02.384Z,51.00
2018-09-10T14:02:31.276Z,51.00
2018-09-10T14:05:00.162Z,51.30
2018-09-10T14:07:29.071Z,51.40
2018-09-10T14:09:57.996Z,51.20
2018-09-10T14:12:26.942Z,51.40
2018-09-10T14:14:56.497Z,51.10
2018-09-10T14:17:25.349Z,51.20
2018-09-10T14:19:54.322Z,51.20
2018-09-10T14:22:23.177Z,51.70
2018-09-10T14:24:52.114Z,51.90
2018-09-10T14:27:20.997Z,52.00
2018-09-10T14:29:49.807Z,52.40
2018-09-10T14:32:20.193Z,52.50
2018-09-10T14:34:49.412Z,52.60
2018-09-10T14:37:18.471Z,52.80
2018-09-10T14:39:47.381Z,52.70
2018-09-10T14:42:16.401Z,52.50
2018-09-10T14:44:45.348Z,52.50
2018-09-10T14:47:14.221Z,52.70
2018-09-10T14:49:43.148Z,52.80
2018-09-10T14:52:11.992Z,52.70
2018-09-10T14:54:42.171Z,52.70
2018-09-10T14:57:11.103Z,53.00
2018-09-10T14:59:39.962Z,53.00
2018-09-10T15:02:08.836Z,52.90
2018-09-10T15:04:37.782Z,52.50
2018-09-10T15:07:06.721Z,52.90
2018-09-10T15:09:35.807Z,52.90
2018-09-10T15:12:04.685Z,53.20
2018-09-10T15:14:33.558Z,53.30
2018-09-10T15:17:02.565Z,53.80
2018-09-10T15:19:31.382Z,53.20
2018-09-10T15:22:00.393Z,53.20
2018-09-10T15:24:29.459Z,53.40
2018-09-10T15:26:58.349Z,53.50
2018-09-10T15:29:27.170Z,53.80
2018-09-10T15:31:56.040Z,53.70
2018-09-10T15:34:26.381Z,53.80
2018-09-10T15:36:55.194Z,53.70
2018-09-10T15:39:24.111Z,53.60
2018-09-10T15:41:53.002Z,53.60
2018-09-10T15:44:21.828Z,53.80
2018-09-10T15:46:50.716Z,53.60
2018-09-10T15:49:19.561Z,53.70
2018-09-10T15:51:48.383Z,53.70
2018-09-10T15:54:17.337Z,53.60
2018-09-10T15:56:46.379Z,53.70
2018-09-10T15:59:15.312Z,53.40
2018-09-10T16:01:44.250Z,53.40
2018-09-10T16:04:13.263Z,53.50
2018-09-10T16:06:42.098Z,53.40
2018-09-10T16:09:10.993Z,53.40
2018-09-10T16:11:39.895Z,53.50
2018-09-10T16:14:08.793Z,53.70
2018-09-10T16:16:37.712Z,54.00
2018-09-10T16:19:06.543Z,54.10
2018-09-10T16:21:35.377Z,54.40
2018-09-10T16:24:04.297Z,54.30
2018-09-10T16:26:33.280Z,54.40
2018-09-10T16:29:02.249Z,54.60
2018-09-10T16:31:31.096Z,55.40
2018-09-10T16:34:00.049Z,55.90
2018-09-10T16:36:28.839Z,55.90
2018-09-10T16:38:57.729Z,55.90
2018-09-10T16:41:26.609Z,56.40
2018-09-10T16:43:55.462Z,55.90
2018-09-10T16:46:24.300Z,56.00
2018-09-10T16:48:53.135Z,55.90
2018-09-10T16:51:22.620Z,56.00
2018-09-10T16:53:51.459Z,55.90
2018-09-10T16:56:20.295Z,55.90
2018-09-10T16:58:49.231Z,55.80
2018-09-10T17:01:18.062Z,55.80
2018-09-10T17:03:47.044Z,55.90
2018-09-10T17:06:15.984Z,55.80
2018-09-10T17:08:44.838Z,55.80
2018-09-10T17:11:13.669Z,55.80
2018-09-10T17:13:42.589Z,55.80
2018-09-10T17:16:11.462Z,55.70
2018-09-10T17:18:40.279Z,55.60
2018-09-10T17:21:09.149Z,55.50
2018-09-10T17:23:38.020Z,55.40
2018-09-10T17:26:06.858Z,55.50
2018-09-10T17:30:22.180Z,54.60
2018-09-10T17:32:52.029Z,55.10
2018-09-10T17:35:22.556Z,55.80
2018-09-10T17:37:53.100Z,56.50
2018-09-10T17:40:21.905Z,59.00
2018-09-10T17:42:50.753Z,57.10
2018-09-10T17:45:19.903Z,56.10
2018-09-10T17:47:49.915Z,55.40
2018-09-10T17:50:18.760Z,55.70
2018-09-10T17:55:32.316Z,54.90
2018-09-10T17:58:01.263Z,57.40
2018-09-10T18:00:30.129Z,60.10
2018-09-10T18:03:00.004Z,63.80
2018-09-10T18:05:28.920Z,67.30
2018-09-10T18:07:57.767Z,70.50
2018-09-10T18:10:26.854Z,73.50
2018-09-10T18:12:55.728Z,75.40
2018-09-10T18:15:24.683Z,77.70
2018-09-10T18:17:53.552Z,79.20
2018-09-10T18:20:22.622Z,80.40
2018-09-10T18:22:52.394Z,81.60
2018-09-10T18:25:21.244Z,82.80
2018-09-10T18:27:50.269Z,83.60
2018-09-10T18:30:19.303Z,84.30
2018-09-10T18:32:51.847Z,85.50
2018-09-10T18:35:20.807Z,86.40
2018-09-10T18:37:50.285Z,87.20
2018-09-10T18:40:19.422Z,88.00
2018-09-10T18:42:48.349Z,88.30
2018-09-10T18:45:17.402Z,88.70
2018-09-10T18:47:46.889Z,89.30
2018-09-10T18:50:15.774Z,89.90
2018-09-10T18:52:44.778Z,90.00
2018-09-10T18:55:13.802Z,90.20
2018-09-10T18:57:42.699Z,90.20
2018-09-10T19:00:11.648Z,90.30
2018-09-10T19:02:40.616Z,90.50
2018-09-10T19:05:09.508Z,90.60
2018-09-10T19:07:38.433Z,90.70
2018-09-10T19:10:07.986Z,90.80
2018-09-10T19:12:36.840Z,90.90
2018-09-10T19:15:06.267Z,90.70
2018-09-10T19:17:35.243Z,90.70
2018-09-10T19:20:04.325Z,90.60
2018-09-10T19:22:33.152Z,90.40
2018-09-10T19:25:02.025Z,90.40
2018-09-10T19:27:30.934Z,90.70
2018-09-10T19:29:59.775Z,90.30
2018-09-10T19:32:28.613Z,90.40
2018-09-10T19:34:58.536Z,90.60
2018-09-10T19:37:27.476Z,90.70
2018-09-10T19:39:56.286Z,91.00
2018-09-10T19:42:25.270Z,91.00
2018-09-10T19:44:54.465Z,91.10
2018-09-10T19:47:23.319Z,91.10
2018-09-10T19:49:52.262Z,91.00
2018-09-10T19:52:21.252Z,91.10
2018-09-10T19:54:50.150Z,91.40
2018-09-10T19:57:19.054Z,91.60
2018-09-10T19:59:48.072Z,91.50
2018-09-10T20:02:18.067Z,91.70
2018-09-10T20:04:46.943Z,91.80
2018-09-10T20:07:15.865Z,92.00
2018-09-10T20:09:44.831Z,92.20
2018-09-10T20:12:13.744Z,92.50
2018-09-10T20:14:42.693Z,92.50
2018-09-10T20:17:12.003Z,92.80
2018-09-10T20:19:41.145Z,93.10
2018-09-10T20:22:14.067Z,93.20
2018-09-10T20:24:42.942Z,93.20
2018-09-10T20:27:11.803Z,93.50
2018-09-10T20:29:40.724Z,93.20
2018-09-10T20:32:10.051Z,93.50
2018-09-10T20:34:38.879Z,93.70
2018-09-10T20:37:07.779Z,93.90
2018-09-10T20:39:36.668Z,93.90
2018-09-10T20:42:05.608Z,93.90
2018-09-10T20:44:34.494Z,93.90
2018-09-10T20:47:04.311Z,94.00
2018-09-10T20:49:33.252Z,94.00
2018-09-10T20:52:02.724Z,93.90
2018-09-10T20:54:31.589Z,93.80
2018-09-10T20:57:00.461Z,94.00
2018-09-10T20:59:29.367Z,94.30
2018-09-10T21:01:58.219Z,94.50
2018-09-10T21:04:27.108Z,94.60
2018-09-10T21:06:56.084Z,94.60
2018-09-10T21:09:25.122Z,94.60
2018-09-10T21:11:54.208Z,94.50
2018-09-10T21:14:23.171Z,94.50
2018-09-10T21:16:52.162Z,94.40
2018-09-10T21:19:21.212Z,94.50
2018-09-10T21:21:50.251Z,94.70
2018-09-10T21:24:19.189Z,94.80
2018-09-10T21:26:48.045Z,94.80
2018-09-10T21:29:16.991Z,94.90
2018-09-10T21:31:45.828Z,94.80
2018-09-10T21:34:14.808Z,94.90
2018-09-10T21:36:43.779Z,95.00
2018-09-10T21:39:12.661Z,94.90
2018-09-10T21:41:41.480Z,95.20
2018-09-10T21:44:10.816Z,95.40
2018-09-10T21:46:39.685Z,95.50
2018-09-10T21:49:08.567Z,95.50
2018-09-10T21:51:37.455Z,95.50
2018-09-10T21:54:06.287Z,95.50
2018-09-10T21:56:35.163Z,95.50
2018-09-10T21:59:04.062Z,95.60
2018-09-10T22:01:32.939Z,95.50
2018-09-10T22:04:01.768Z,95.50
2018-09-10T22:06:30.717Z,95.50
2018-09-10T22:08:59.612Z,95.50
2018-09-10T22:11:28.551Z,95.30
2018-09-10T22:13:57.470Z,95.40
2018-09-10T22:16:26.314Z,95.30
2018-09-10T22:18:55.164Z,95.50
2018-09-10T22:21:24.056Z,95.70
2018-09-10T22:23:52.914Z,95.80
2018-09-10T22:26:21.792Z,95.80
2018-09-10T22:28:50.933Z,95.70
2018-09-10T22:31:19.800Z,96.00
2018-09-10T22:33:48.674Z,95.90
2018-09-10T22:36:17.584Z,95.70
2018-09-10T22:38:46.456Z,95.90
2018-09-10T22:41:15.319Z,96.10
2018-09-10T22:43:44.362Z,96.10
2018-09-10T22:46:13.203Z,96.10
2018-09-10T22:48:42.114Z,96.30
2018-09-10T22:51:11.125Z,96.40
2018-09-10T22:53:39.982Z,96.50
2018-09-10T22:56:08.865Z,96.50
2018-09-10T22:58:37.751Z,96.60
2018-09-10T23:01:06.637Z,96.50
2018-09-10T23:03:35.519Z,96.50
2018-09-10T23:06:04.406Z,96.50
2018-09-10T23:08:33.313Z,96.50
2018-09-10T23:11:02.151Z,96.50
2018-09-10T23:13:31.104Z,96.60
2018-09-10T23:15:59.961Z,96.60
2018-09-10T23:18:28.808Z,96.70
2018-09-10T23:20:57.804Z,96.70
2018-09-10T23:23:26.674Z,96.80
2018-09-10T23:25:55.532Z,96.70
2018-09-10T23:28:24.496Z,96.70
2018-09-10T23:30:53.591Z,96.80
2018-09-10T23:33:22.436Z,96.90
2018-09-10T23:35:51.372Z,96.70
2018-09-10T23:38:20.227Z,96.60
2018-09-10T23:40:49.057Z,96.90
2018-09-10T23:43:17.949Z,97.10
2018-09-10T23:45:46.813Z,96.70
2018-09-10T23:48:15.690Z,96.50
2018-09-10T23:50:44.612Z,96.60
2018-09-10T23:53:13.459Z,96.90
2018-09-10T23:55:42.311Z,96.90
2018-09-10T23:58:11.214Z,96.90
